Time;durP1;ratioP1;P1;durP2;ratioP2;P2;SDS_P1;SDS_P2;PMS_P1;PMS_P2;Temp;Humidity;BMP_temperature;BMP_pressure;BME280_temperature;BME280_humidity;BME280_pressure;Samples;Min_cycle;Max_cycle;Signal;HPM_P1;HPM_P2
2022/05/11 00:00:40;;;;;;;3.10;1.90;;;19.60;78.00;;;;;;2071889;28;20385;-70
2022/05/11 00:01:41;;;;;;;4.18;1.90;;;19.50;77.10;;;;;;2074655;28;20064;-70
2022/05/11 00:02:41;;;;;;;2.47;2.05;;;19.50;77.60;;;;;;2069788;28;20014;-70
2022/05/11 00:03:42;;;;;;;5.45;2.30;;;19.50;78.80;;;;;;2074037;28;20092;-70
2022/05/11 00:04:43;;;;;;;3.10;2.10;;;19.50;78.60;;;;;;2071378;28;20100;-70
2022/05/11 00:05:43;;;;;;;2.30;1.70;;;19.50;77.70;;;;;;2069898;28;20081;-70
2022/05/11 00:06:44;;;;;;;4.38;2.10;;;19.50;78.10;;;;;;2070795;28;20409;-70
2022/05/11 00:07:45;;;;;;;2.75;2.10;;;19.50;79.80;;;;;;2070912;28;20022;-70
2022/05/11 00:08:45;;;;;;;2.03;1.80;;;19.50;80.80;;;;;;2068067;28;20026;-70
2022/05/11 00:09:46;;;;;;;3.00;2.00;;;19.50;79.50;;;;;;2069559;28;20548;-70
2022/05/11 00:10:46;;;;;;;1.95;1.75;;;19.50;79.30;;;;;;2073156;28;20041;-70
2022/05/11 00:11:47;;;;;;;2.80;1.38;;;19.50;80.00;;;;;;2071902;28;20632;-70
2022/05/11 00:12:48;;;;;;;2.63;1.98;;;19.50;80.00;;;;;;2072270;28;20026;-70
2022/05/11 00:13:49;;;;;;;2.78;1.80;;;19.50;81.30;;;;;;2072840;28;20660;-70
2022/05/11 00:14:50;;;;;;;1.80;1.67;;;19.50;80.60;;;;;;2072559;28;20037;-70
2022/05/11 00:15:51;;;;;;;2.10;1.90;;;19.50;81.70;;;;;;2070628;28;20033;-70
2022/05/11 00:16:52;;;;;;;2.10;1.90;;;19.50;83.40;;;;;;2068656;28;20025;-70
2022/05/11 00:17:52;;;;;;;2.30;2.00;;;19.50;82.80;;;;;;2068816;28;20038;-70
2022/05/11 00:18:53;;;;;;;2.25;2.08;;;19.50;82.90;;;;;;2070763;28;20481;-70
2022/05/11 00:19:53;;;;;;;2.80;1.92;;;19.50;83.90;;;;;;2069379;28;20026;-70
2022/05/11 00:20:54;;;;;;;3.15;1.88;;;19.50;83.50;;;;;;2071243;28;20093;-70
2022/05/11 00:21:57;;;;;;;3.53;2.00;;;19.40;84.30;;;;;;2067390;28;20021;-70
2022/05/11 00:22:59;;;;;;;2.67;1.98;;;19.40;86.60;;;;;;2070089;28;20105;-70
2022/05/11 00:23:59;;;;;;;2.40;2.08;;;19.40;85.90;;;;;;2071023;28;20022;-70
2022/05/11 00:25:01;;;;;;;2.55;2.03;;;19.40;85.10;;;;;;2070583;28;20045;-70
2022/05/11 00:26:02;;;;;;;2.53;2.10;;;19.40;86.30;;;;;;2068208;28;20049;-70
2022/05/11 00:27:03;;;;;;;2.53;1.95;;;19.40;84.50;;;;;;2070985;28;20057;-70
2022/05/11 00:28:04;;;;;;;2.75;2.00;;;19.40;86.90;;;;;;2072741;28;20033;-70
2022/05/11 00:29:04;;;;;;;4.97;1.80;;;19.40;87.00;;;;;;2069822;28;20429;-70
2022/05/11 00:30:06;;;;;;;3.00;2.15;;;19.40;86.80;;;;;;2070484;28;20026;-70
2022/05/11 00:31:08;;;;;;;3.30;2.10;;;19.40;87.00;;;;;;2070488;28;20093;-70
2022/05/11 00:32:09;;;;;;;2.38;1.75;;;19.40;86.60;;;;;;2071770;28;20478;-70
2022/05/11 00:33:13;;;;;;;2.70;2.00;;;19.40;86.00;;;;;;2070584;28;20026;-70
2022/05/11 00:34:13;;;;;;;5.15;1.90;;;19.40;87.00;;;;;;2070702;28;20606;-70
2022/05/11 00:35:14;;;;;;;1.98;1.77;;;19.30;87.10;;;;;;2070596;28;20390;-70
2022/05/11 00:36:15;;;;;;;2.22;1.90;;;19.30;87.50;;;;;;2074687;28;20018;-71
2022/05/11 00:37:15;;;;;;;4.47;1.98;;;19.30;87.20;;;;;;2073902;28;20389;-71
2022/05/11 00:38:19;;;;;;;3.58;1.92;;;19.30;88.00;;;;;;2073185;28;20041;-71
2022/05/11 00:39:20;;;;;;;2.35;1.73;;;19.30;88.40;;;;;;2072807;28;20025;-71
2022/05/11 00:40:22;;;;;;;3.13;2.10;;;19.30;87.60;;;;;;2072789;28;20041;-70
2022/05/11 00:41:23;;;;;;;4.25;1.80;;;19.30;86.50;;;;;;2071076;28;20036;-70
2022/05/11 00:42:23;;;;;;;2.90;1.70;;;19.30;85.00;;;;;;2071879;28;20099;-70
2022/05/11 00:43:35;;;;;;;1.65;1.52;;;19.30;85.10;;;;;;2074429;28;20058;-70
2022/05/11 00:44:36;;;;;;;3.95;1.83;;;19.30;85.70;;;;;;2069862;28;20022;-70
2022/05/11 00:45:45;;;;;;;4.00;1.92;;;19.30;86.50;;;;;;2075423;28;20034;-70
2022/05/11 00:46:54;;;;;;;1.85;1.67;;;19.20;85.00;;;;;;2072895;28;20040;-70
2022/05/11 00:49:35;;;;;;;2.45;1.63;;;19.20;85.30;;;;;;2069713;28;20031;-71
2022/05/11 00:50:36;;;;;;;4.93;2.28;;;19.20;85.40;;;;;;2069612;28;20029;-71
2022/05/11 00:51:47;;;;;;;3.88;1.90;;;19.10;86.20;;;;;;2072462;28;20109;-71
2022/05/11 00:52:55;;;;;;;4.07;2.10;;;19.10;85.10;;;;;;2070959;28;20022;-71
2022/05/11 00:53:56;;;;;;;2.53;1.73;;;19.10;85.40;;;;;;2072483;28;20117;-70
2022/05/11 00:55:04;;;;;;;3.17;2.10;;;19.10;84.20;;;;;;2070792;28;20588;-70
2022/05/11 00:56:05;;;;;;;2.53;1.80;;;19.10;86.80;;;;;;2070943;28;20030;-70
2022/05/11 00:57:11;;;;;;;2.03;1.75;;;19.10;87.30;;;;;;2072079;28;20060;-70
2022/05/11 00:58:14;;;;;;;3.28;1.90;;;19.10;86.20;;;;;;2071033;28;20032;-70
2022/05/11 00:59:21;;;;;;;2.35;1.90;;;19.10;86.60;;;;;;2074260;28;20022;-70
2022/05/11 01:00:23;;;;;;;2.35;1.73;;;19.10;87.40;;;;;;2074004;28;21019;-70
2022/05/11 01:01:25;;;;;;;4.38;2.53;;;19.00;88.00;;;;;;2072556;28;20033;-70
2022/05/11 01:02:26;;;;;;;2.05;1.85;;;19.00;88.00;;;;;;2072532;28;20024;-70
2022/05/11 01:03:51;;;;;;;2.88;1.85;;;19.00;87.80;;;;;;2074513;28;20109;-70
2022/05/11 01:04:56;;;;;;;2.10;1.88;;;19.00;86.80;;;;;;2070216;28;20104;-70
2022/05/11 01:05:57;;;;;;;3.95;1.80;;;19.00;87.90;;;;;;2070035;28;20018;-70
2022/05/11 01:07:00;;;;;;;3.58;1.67;;;19.00;86.90;;;;;;2073037;28;20084;-70
2022/05/11 01:08:01;;;;;;;5.57;2.10;;;19.00;87.60;;;;;;2070018;28;20553;-70
2022/05/11 01:09:05;;;;;;;2.83;1.65;;;19.00;88.60;;;;;;2070008;28;20021;-70
2022/05/11 01:10:08;;;;;;;3.28;2.10;;;18.90;88.60;;;;;;2071510;28;20033;-70
2022/05/11 01:11:10;;;;;;;1.75;1.63;;;19.00;89.70;;;;;;2074475;28;20044;-70
2022/05/11 01:12:16;;;;;;;2.63;2.00;;;19.00;88.10;;;;;;2071633;28;20029;-70
2022/05/11 01:13:18;;;;;;;3.05;2.13;;;18.90;87.40;;;;;;2072647;28;20574;-70
2022/05/11 01:14:22;;;;;;;4.85;2.10;;;18.90;86.60;;;;;;2071093;28;20026;-70
2022/05/11 01:15:24;;;;;;;3.72;2.25;;;18.90;90.10;;;;;;2070350;28;20133;-70
2022/05/11 01:16:28;;;;;;;3.72;2.05;;;18.90;90.60;;;;;;2071339;28;20037;-70
2022/05/11 01:17:29;;;;;;;4.43;2.10;;;18.90;88.90;;;;;;2073300;28;20033;-70
2022/05/11 01:18:31;;;;;;;2.83;1.83;;;18.90;87.70;;;;;;2075573;28;20026;-70
2022/05/11 01:19:38;;;;;;;3.72;2.20;;;18.90;89.10;;;;;;2071967;28;20072;-70
2022/05/11 01:20:39;;;;;;;2.92;1.90;;;18.90;89.50;;;;;;2074496;28;20034;-70
2022/05/11 01:22:03;;;;;;;2.38;1.88;;;18.80;88.70;;;;;;2072818;28;20060;-70
2022/05/11 01:23:11;;;;;;;3.28;2.10;;;18.80;89.60;;;;;;2070406;28;20031;-70
2022/05/11 01:24:36;;;;;;;2.55;2.10;;;18.80;87.40;;;;;;2085987;28;20484;-70
2022/05/11 01:25:36;;;;;;;2.50;2.22;;;18.80;88.50;;;;;;2079534;28;20021;-70
2022/05/11 01:26:37;;;;;;;3.30;2.03;;;18.80;89.30;;;;;;2074398;28;20099;-70
2022/05/11 01:27:40;;;;;;;3.78;1.90;;;18.80;89.00;;;;;;2071817;28;20025;-70
2022/05/11 01:28:42;;;;;;;5.35;2.45;;;18.70;88.90;;;;;;2071932;28;20034;-70
2022/05/11 01:29:43;;;;;;;4.72;2.60;;;18.70;86.20;;;;;;2072558;28;20414;-70
2022/05/11 01:30:52;;;;;;;2.38;2.15;;;18.70;85.00;;;;;;2087233;28;20062;-70
2022/05/11 01:31:53;;;;;;;4.68;2.13;;;18.70;83.70;;;;;;2076989;28;20025;-70
2022/05/11 01:32:55;;;;;;;4.40;2.05;;;18.70;83.70;;;;;;2073940;28;20496;-70
2022/05/11 01:33:57;;;;;;;3.55;2.58;;;18.60;83.40;;;;;;2072689;28;20112;-70
2022/05/11 01:35:26;;;;;;;4.88;2.33;;;18.60;83.30;;;;;;2071646;28;20469;-70
2022/05/11 01:36:30;;;;;;;3.03;2.15;;;18.60;83.10;;;;;;2069020;28;20410;-70
2022/05/11 01:37:36;;;;;;;3.88;2.33;;;18.50;83.30;;;;;;2074269;28;20021;-70
2022/05/11 01:38:45;;;;;;;4.20;2.00;;;18.50;83.70;;;;;;2072296;28;20033;-70
2022/05/11 01:39:46;;;;;;;3.50;2.40;;;18.50;84.20;;;;;;2071720;28;20068;-70
2022/05/11 01:40:47;;;;;;;3.08;2.10;;;18.60;84.30;;;;;;2070514;28;20033;-70
2022/05/11 01:41:52;;;;;;;5.30;2.58;;;18.50;83.30;;;;;;2072431;28;20022;-70
2022/05/11 01:42:52;;;;;;;2.88;2.45;;;18.50;84.90;;;;;;2070495;28;20096;-70
2022/05/11 01:43:54;;;;;;;3.92;2.30;;;18.50;84.50;;;;;;2072234;28;20034;-70
2022/05/11 01:44:54;;;;;;;4.88;2.50;;;18.60;84.30;;;;;;2071284;28;20014;-70
2022/05/11 01:45:55;;;;;;;6.78;2.63;;;18.50;84.50;;;;;;2071022;28;20076;-70
2022/05/11 01:46:58;;;;;;;4.93;2.15;;;18.50;83.90;;;;;;2073374;28;20548;-70
2022/05/11 01:47:59;;;;;;;2.60;2.15;;;18.60;83.20;;;;;;2071104;28;21079;-70
2022/05/11 01:49:00;;;;;;;3.75;2.42;;;18.60;82.90;;;;;;2069539;28;20446;-70
2022/05/11 01:50:01;;;;;;;4.28;1.90;;;18.50;83.30;;;;;;2071213;28;20029;-70
2022/05/11 01:51:01;;;;;;;2.70;1.92;;;18.50;83.20;;;;;;2071614;28;20052;-70
2022/05/11 01:52:02;;;;;;;6.32;2.55;;;18.60;84.10;;;;;;2072064;28;20033;-71
2022/05/11 01:53:04;;;;;;;4.93;2.30;;;18.60;83.80;;;;;;2068890;28;20498;-70
2022/05/11 01:54:05;;;;;;;3.65;1.98;;;18.60;84.90;;;;;;2070569;28;20030;-70
2022/05/11 01:55:06;;;;;;;5.22;2.50;;;18.60;85.30;;;;;;2071467;28;20119;-70
2022/05/11 01:56:09;;;;;;;4.65;2.13;;;18.60;85.40;;;;;;2068126;28;20447;-70
2022/05/11 01:57:09;;;;;;;4.53;2.75;;;18.70;84.90;;;;;;2073802;28;20081;-70
2022/05/11 01:58:11;;;;;;;4.97;2.78;;;18.60;83.30;;;;;;2072165;28;20071;-70
2022/05/11 01:59:12;;;;;;;3.40;2.78;;;18.60;83.10;;;;;;2073676;28;20085;-70
2022/05/11 02:00:13;;;;;;;4.18;2.75;;;18.60;82.70;;;;;;2074086;28;20030;-70
2022/05/11 02:01:15;;;;;;;4.30;2.60;;;18.60;82.40;;;;;;2071513;28;20105;-70
2022/05/11 02:02:16;;;;;;;5.68;2.75;;;18.60;82.60;;;;;;2073629;28;20021;-70
2022/05/11 02:03:20;;;;;;;2.30;2.13;;;18.60;81.90;;;;;;2069420;28;20037;-70
2022/05/11 02:08:19;;;;;;;3.13;2.30;;;18.60;82.80;;;;;;2073269;28;20189;-70
2022/05/11 02:09:19;;;;;;;5.28;2.35;;;18.50;82.80;;;;;;2073900;28;20026;-70
2022/05/11 02:10:22;;;;;;;4.28;2.60;;;18.60;84.20;;;;;;2072767;28;20482;-70
2022/05/11 02:11:23;;;;;;;4.80;2.55;;;18.60;83.20;;;;;;2072511;28;20406;-70
2022/05/11 02:12:24;;;;;;;5.78;2.20;;;18.60;82.90;;;;;;2070605;28;20033;-70
2022/05/11 02:13:24;;;;;;;4.13;2.20;;;18.60;83.20;;;;;;2069210;28;20447;-70
2022/05/11 02:14:25;;;;;;;6.55;2.70;;;18.60;83.00;;;;;;2070533;28;20033;-70
2022/05/11 02:15:26;;;;;;;3.95;2.38;;;18.60;83.20;;;;;;2072056;28;20042;-70
2022/05/11 02:16:27;;;;;;;8.00;2.35;;;18.60;84.10;;;;;;2071858;28;20030;-70
2022/05/11 02:17:28;;;;;;;5.38;2.40;;;18.60;83.30;;;;;;2071909;28;20100;-70
2022/05/11 02:18:29;;;;;;;3.90;2.33;;;18.60;84.00;;;;;;2070925;28;20034;-70
2022/05/11 02:19:30;;;;;;;3.28;2.35;;;18.60;83.90;;;;;;2072542;28;20026;-70
2022/05/11 02:20:31;;;;;;;2.85;2.00;;;18.60;84.10;;;;;;2069092;28;20052;-70
2022/05/11 02:21:31;;;;;;;5.30;2.30;;;18.60;83.90;;;;;;2070376;28;20057;-70
2022/05/11 02:22:32;;;;;;;3.88;2.22;;;18.60;83.90;;;;;;2071036;28;20018;-70
2022/05/11 02:23:34;;;;;;;4.32;2.47;;;18.60;84.70;;;;;;2071467;28;20029;-70
2022/05/11 02:24:35;;;;;;;5.15;2.58;;;18.70;83.90;;;;;;2069971;28;20037;-70
2022/05/11 02:25:35;;;;;;;5.88;2.20;;;18.70;84.20;;;;;;2075790;28;20049;-70
2022/05/11 02:26:36;;;;;;;3.20;2.15;;;18.60;84.90;;;;;;2071226;28;20022;-70
2022/05/11 02:27:36;;;;;;;2.80;2.20;;;18.60;84.10;;;;;;2074308;28;20030;-70
2022/05/11 02:28:38;;;;;;;3.90;2.20;;;18.60;84.90;;;;;;2070769;28;20430;-70
2022/05/11 02:29:39;;;;;;;5.75;2.58;;;18.60;84.30;;;;;;2070215;28;20030;-70
2022/05/11 02:30:41;;;;;;;2.53;2.30;;;18.60;84.60;;;;;;2070366;28;20096;-70
2022/05/11 02:31:42;;;;;;;4.35;2.58;;;18.60;85.10;;;;;;2068214;28;20036;-70
2022/05/11 02:32:43;;;;;;;1.98;1.80;;;18.60;84.00;;;;;;2072960;28;20045;-70
2022/05/11 02:33:43;;;;;;;3.17;2.40;;;18.60;83.70;;;;;;2071335;28;20120;-70
2022/05/11 02:36:03;;;;;;;3.50;2.00;;;18.60;84.70;;;;;;2069928;28;20026;-70
2022/05/11 02:37:04;;;;;;;6.55;2.50;;;18.60;84.50;;;;;;2072100;28;20482;-70
2022/05/11 02:38:12;;;;;;;5.15;2.42;;;18.60;84.20;;;;;;2071301;28;20034;-70
2022/05/11 02:39:12;;;;;;;4.60;2.22;;;18.60;85.30;;;;;;2071822;28;20057;-70
2022/05/11 02:40:16;;;;;;;4.15;2.40;;;18.60;85.10;;;;;;2070206;28;20030;-70
2022/05/11 02:41:17;;;;;;;3.97;2.60;;;18.60;85.70;;;;;;2070729;28;20018;-70
2022/05/11 02:42:18;;;;;;;5.00;2.30;;;18.60;86.30;;;;;;2072305;28;20137;-70
2022/05/11 02:43:19;;;;;;;3.00;2.28;;;18.60;85.80;;;;;;2070599;28;20048;-70
2022/05/11 02:44:20;;;;;;;3.50;2.50;;;18.60;86.60;;;;;;2075086;28;20556;-70
2022/05/11 02:45:22;;;;;;;3.58;2.40;;;18.60;86.30;;;;;;2070106;28;20025;-70
2022/05/11 02:46:23;;;;;;;4.47;2.35;;;18.60;87.10;;;;;;2071179;28;20072;-70
2022/05/11 02:47:24;;;;;;;2.03;1.77;;;18.60;85.80;;;;;;2071667;28;20046;-70
2022/05/11 02:48:25;;;;;;;4.57;2.35;;;18.50;85.20;;;;;;2069060;28;20033;-70
2022/05/11 02:49:25;;;;;;;1.88;1.77;;;18.60;86.30;;;;;;2071048;28;20029;-70
2022/05/11 02:50:32;;;;;;;2.60;2.05;;;18.60;86.60;;;;;;2072708;28;20033;-70
2022/05/11 02:51:33;;;;;;;4.55;1.65;;;18.60;86.00;;;;;;2071379;28;20057;-70
2022/05/11 02:52:34;;;;;;;3.88;1.92;;;18.50;85.20;;;;;;2072794;28;20033;-70
2022/05/11 02:53:34;;;;;;;2.50;2.30;;;18.50;86.40;;;;;;2070288;28;20413;-70
2022/05/11 02:54:35;;;;;;;3.00;2.05;;;18.50;87.00;;;;;;2070603;28;20029;-70
2022/05/11 02:55:38;;;;;;;3.08;2.15;;;18.50;84.90;;;;;;2069659;28;20478;-70
2022/05/11 02:56:38;;;;;;;4.90;2.22;;;18.50;84.00;;;;;;2071666;28;20025;-70
2022/05/11 02:57:39;;;;;;;2.83;2.33;;;18.50;85.70;;;;;;2071213;28;20064;-70
2022/05/11 02:58:39;;;;;;;6.50;2.67;;;18.50;86.90;;;;;;2070219;28;20041;-70
2022/05/11 02:59:40;;;;;;;3.55;1.90;;;18.50;88.30;;;;;;2070778;28;20030;-70
2022/05/11 03:00:44;;;;;;;3.72;2.00;;;18.50;88.10;;;;;;2071139;28;20038;-70
2022/05/11 03:01:44;;;;;;;4.60;2.35;;;18.40;88.30;;;;;;2071286;28;20045;-70
2022/05/11 03:02:45;;;;;;;6.32;2.35;;;18.40;88.20;;;;;;2070357;28;20018;-70
2022/05/11 03:03:46;;;;;;;3.10;1.80;;;18.40;87.90;;;;;;2070701;28;20025;-70
2022/05/11 03:04:47;;;;;;;3.47;2.03;;;18.40;88.20;;;;;;2070988;28;20026;-70
2022/05/11 03:05:52;;;;;;;3.17;2.35;;;18.40;89.10;;;;;;2071377;28;20030;-70
2022/05/11 03:06:52;;;;;;;2.15;1.95;;;18.40;87.90;;;;;;2070333;28;20512;-70
2022/05/11 03:07:53;;;;;;;2.55;1.83;;;18.40;87.90;;;;;;2071770;28;20068;-70
2022/05/11 03:08:53;;;;;;;3.00;2.05;;;18.40;89.40;;;;;;2072796;28;20040;-70
2022/05/11 03:09:54;;;;;;;2.50;2.20;;;18.40;89.70;;;;;;2070882;28;20042;-70
2022/05/11 03:10:55;;;;;;;2.58;1.92;;;18.40;89.20;;;;;;2071739;28;20022;-70
2022/05/11 03:11:55;;;;;;;5.75;2.75;;;18.30;88.50;;;;;;2069868;28;20030;-70
2022/05/11 03:12:56;;;;;;;2.72;1.98;;;18.30;89.50;;;;;;2074700;28;20487;-70
2022/05/11 03:13:56;;;;;;;3.85;2.42;;;18.30;88.60;;;;;;2070308;28;20067;-70
2022/05/11 03:14:57;;;;;;;3.67;2.15;;;18.30;90.40;;;;;;2071222;28;20022;-70
2022/05/11 03:15:58;;;;;;;8.15;2.20;;;18.30;90.30;;;;;;2067246;28;20097;-70
2022/05/11 03:16:59;;;;;;;3.33;2.40;;;18.30;90.90;;;;;;2071457;28;20033;-70
2022/05/11 03:18:00;;;;;;;4.07;2.47;;;18.30;90.70;;;;;;2072366;28;22519;-70
2022/05/11 03:19:02;;;;;;;4.82;2.35;;;18.30;90.40;;;;;;2069437;28;20386;-70
2022/05/11 03:20:06;;;;;;;5.15;2.28;;;18.30;91.10;;;;;;2070763;28;20072;-70
2022/05/11 03:21:06;;;;;;;3.53;2.00;;;18.30;90.90;;;;;;2068287;28;20508;-70
2022/05/11 03:22:07;;;;;;;2.38;1.90;;;18.30;89.40;;;;;;2070362;28;20420;-70
2022/05/11 03:23:07;;;;;;;2.75;2.13;;;18.30;90.20;;;;;;2071176;28;20096;-70
2022/05/11 03:24:08;;;;;;;3.10;2.25;;;18.20;90.80;;;;;;2068309;28;20111;-70
2022/05/11 03:25:09;;;;;;;4.15;2.35;;;18.20;91.30;;;;;;2069167;28;20018;-70
2022/05/11 03:26:11;;;;;;;3.60;2.40;;;18.20;91.40;;;;;;2068972;28;20026;-70
2022/05/11 03:27:11;;;;;;;2.47;2.03;;;18.20;91.80;;;;;;2068140;28;20026;-70
2022/05/11 03:28:12;;;;;;;3.65;2.25;;;18.20;91.70;;;;;;2068897;28;20034;-70
2022/05/11 03:29:13;;;;;;;3.15;2.03;;;18.20;92.00;;;;;;2067904;28;20100;-70
2022/05/11 03:30:14;;;;;;;3.78;2.30;;;18.20;92.40;;;;;;2069918;28;20632;-70
2022/05/11 03:31:15;;;;;;;3.70;2.17;;;18.20;92.60;;;;;;2071429;28;20033;-70
2022/05/11 03:34:54;;;;;;;5.45;2.35;;;18.20;92.50;;;;;;2071452;28;20025;-70
2022/05/11 03:35:54;;;;;;;7.82;2.72;;;18.10;91.40;;;;;;2084240;28;20021;-70
2022/05/11 03:36:55;;;;;;;5.03;2.38;;;18.10;90.80;;;;;;2086393;28;20013;-70
2022/05/11 03:37:55;;;;;;;3.13;2.03;;;18.10;91.40;;;;;;2071628;28;20549;-70
2022/05/11 03:38:56;;;;;;;3.88;1.88;;;18.10;91.30;;;;;;2072898;28;20108;-70
2022/05/11 03:39:56;;;;;;;3.55;2.35;;;18.10;91.80;;;;;;2069780;28;20084;-70
2022/05/11 03:40:58;;;;;;;3.67;2.42;;;18.10;91.50;;;;;;2070547;28;20104;-70
2022/05/11 03:41:59;;;;;;;2.80;2.38;;;18.10;92.10;;;;;;2068908;28;20725;-70
2022/05/11 03:43:02;;;;;;;3.20;2.50;;;18.00;92.40;;;;;;2069178;28;20061;-70
2022/05/11 03:44:02;;;;;;;3.45;2.28;;;18.10;92.10;;;;;;2068093;28;20425;-70
2022/05/11 03:45:09;;;;;;;5.63;2.30;;;18.10;92.10;;;;;;2070810;28;20164;-70
2022/05/11 03:46:11;;;;;;;3.53;2.58;;;18.00;92.80;;;;;;2068415;28;20473;-70
2022/05/11 03:47:11;;;;;;;3.70;2.45;;;18.00;92.60;;;;;;2068908;28;20363;-70
2022/05/11 03:48:12;;;;;;;4.78;1.83;;;18.00;92.80;;;;;;2069473;28;20057;-70
2022/05/11 03:49:14;;;;;;;11.45;2.45;;;18.00;92.30;;;;;;2070540;28;20033;-70
2022/05/11 03:50:17;;;;;;;3.13;2.47;;;18.00;92.60;;;;;;2068453;28;20075;-70
2022/05/11 03:51:17;;;;;;;2.17;1.95;;;18.00;92.70;;;;;;2074655;28;20022;-70
2022/05/11 03:52:18;;;;;;;2.40;2.20;;;18.00;92.40;;;;;;2078205;28;20030;-70
2022/05/11 03:53:18;;;;;;;3.80;2.70;;;18.00;92.70;;;;;;2070852;28;20794;-70
2022/05/11 03:54:19;;;;;;;3.33;2.05;;;18.00;93.50;;;;;;2071625;28;20405;-70
2022/05/11 03:55:21;;;;;;;2.33;1.75;;;18.00;93.40;;;;;;2071952;28;20437;-70
2022/05/11 03:56:22;;;;;;;2.65;2.05;;;18.00;93.00;;;;;;2068181;28;20034;-70
2022/05/11 03:57:22;;;;;;;4.40;2.22;;;18.00;92.80;;;;;;2071032;28;20030;-70
2022/05/11 03:58:23;;;;;;;2.47;1.98;;;18.00;92.80;;;;;;2069673;28;20026;-70
2022/05/11 03:59:24;;;;;;;3.90;2.47;;;18.00;93.50;;;;;;2067228;28;20029;-70
2022/05/11 04:00:25;;;;;;;5.75;2.33;;;18.00;93.70;;;;;;2072360;28;20022;-70
2022/05/11 04:01:25;;;;;;;3.38;2.40;;;18.00;93.40;;;;;;2070571;28;20026;-70
2022/05/11 04:02:26;;;;;;;5.85;2.58;;;18.00;92.80;;;;;;2073262;28;20103;-70
2022/05/11 04:03:26;;;;;;;2.97;2.15;;;18.00;93.50;;;;;;2069204;28;20113;-70
2022/05/11 04:04:27;;;;;;;3.22;2.15;;;18.00;94.40;;;;;;2072053;28;20044;-70
2022/05/11 04:05:28;;;;;;;4.32;2.25;;;18.00;94.80;;;;;;2071573;28;20100;-70
2022/05/11 04:06:29;;;;;;;4.30;2.13;;;18.00;94.50;;;;;;2069328;28;20033;-70
2022/05/11 04:07:30;;;;;;;2.78;2.13;;;18.00;94.50;;;;;;2069430;28;20030;-70
2022/05/11 04:08:30;;;;;;;4.88;2.53;;;18.00;95.00;;;;;;2070940;28;20036;-70
2022/05/11 04:09:31;;;;;;;5.45;2.15;;;18.00;94.90;;;;;;2072855;28;20087;-70
2022/05/11 04:10:31;;;;;;;4.95;2.67;;;18.00;95.00;;;;;;2070693;28;20512;-70
2022/05/11 04:11:33;;;;;;;3.47;2.20;;;18.00;95.80;;;;;;2072582;28;20109;-70
2022/05/11 04:12:34;;;;;;;2.47;2.15;;;18.10;95.70;;;;;;2074328;28;20742;-70
2022/05/11 04:13:35;;;;;;;3.97;1.80;;;18.10;95.60;;;;;;2071742;28;20038;-70
2022/05/11 04:14:35;;;;;;;6.38;2.47;;;18.10;96.20;;;;;;2070740;28;20028;-70
2022/05/11 04:15:36;;;;;;;2.60;2.13;;;18.10;96.30;;;;;;2075632;28;20121;-70
2022/05/11 04:16:37;;;;;;;4.30;2.60;;;18.00;97.00;;;;;;2071909;28;20034;-70
2022/05/11 04:17:37;;;;;;;4.47;2.60;;;18.10;96.80;;;;;;2070966;28;20050;-70
2022/05/11 04:18:38;;;;;;;7.10;1.90;;;18.10;96.80;;;;;;2072455;28;20129;-70
2022/05/11 04:19:38;;;;;;;5.10;1.88;;;18.10;96.50;;;;;;2071761;28;20045;-70
2022/05/11 04:20:39;;;;;;;2.90;2.05;;;18.10;96.10;;;;;;2072411;28;20026;-70
2022/05/11 04:21:39;;;;;;;4.20;2.33;;;18.10;96.60;;;;;;2071848;28;20048;-70
2022/05/11 04:22:40;;;;;;;3.03;2.50;;;18.10;96.90;;;;;;2073100;28;20493;-70
2022/05/11 04:23:41;;;;;;;5.45;2.25;;;18.10;97.50;;;;;;2076734;28;20033;-70
2022/05/11 04:24:41;;;;;;;3.95;2.40;;;18.10;98.10;;;;;;2070208;28;20037;-70
2022/05/11 04:25:42;;;;;;;3.50;2.25;;;18.10;98.20;;;;;;2072015;28;20096;-70
2022/05/11 04:26:43;;;;;;;3.42;2.45;;;18.10;97.80;;;;;;2069526;28;20030;-70
2022/05/11 04:27:46;;;;;;;3.90;1.90;;;18.10;97.50;;;;;;2072301;28;20579;-70
2022/05/11 04:28:46;;;;;;;3.40;2.35;;;18.10;97.00;;;;;;2073423;28;20038;-70
2022/05/11 04:29:47;;;;;;;2.88;2.40;;;18.10;97.30;;;;;;2076003;28;20029;-70
2022/05/11 04:30:47;;;;;;;3.55;2.15;;;18.10;97.80;;;;;;2073459;28;20095;-70
2022/05/11 04:31:55;;;;;;;2.47;2.20;;;18.10;97.10;;;;;;2073622;28;20065;-70
2022/05/11 04:32:56;;;;;;;3.10;2.25;;;18.10;98.00;;;;;;2070521;28;20656;-70
2022/05/11 04:33:56;;;;;;;4.25;2.38;;;18.10;97.90;;;;;;2072157;28;20417;-70
2022/05/11 04:34:57;;;;;;;4.38;2.10;;;18.10;98.30;;;;;;2069050;28;20377;-70
2022/05/11 04:35:57;;;;;;;3.90;2.17;;;18.10;98.60;;;;;;2074354;28;20437;-70
2022/05/11 04:36:58;;;;;;;5.10;2.47;;;18.10;99.00;;;;;;2071368;28;20056;-70
2022/05/11 04:38:00;;;;;;;2.47;1.83;;;18.10;98.70;;;;;;2071366;28;20697;-70
2022/05/11 04:39:00;;;;;;;4.45;2.35;;;18.10;97.90;;;;;;2068418;28;20022;-70
2022/05/11 04:40:01;;;;;;;3.47;2.42;;;18.20;97.40;;;;;;2071868;28;20467;-70
2022/05/11 04:41:02;;;;;;;3.65;2.25;;;18.10;98.00;;;;;;2072111;28;20500;-70
2022/05/11 04:42:03;;;;;;;4.10;2.08;;;18.10;98.10;;;;;;2073232;28;20094;-70
2022/05/11 04:43:09;;;;;;;3.72;2.47;;;18.10;98.80;;;;;;2071118;28;20363;-70
2022/05/11 04:44:09;;;;;;;8.50;2.67;;;18.20;99.20;;;;;;2070292;28;20021;-70
2022/05/11 04:45:10;;;;;;;5.03;2.25;;;18.20;98.60;;;;;;2073435;28;20053;-70
2022/05/11 04:46:11;;;;;;;3.47;2.20;;;18.10;98.10;;;;;;2070907;28;20023;-70
2022/05/11 04:47:13;;;;;;;3.65;2.15;;;18.20;97.70;;;;;;2069986;28;20026;-70
2022/05/11 04:48:16;;;;;;;3.97;2.30;;;18.20;98.20;;;;;;2071864;28;20817;-70
2022/05/11 04:49:19;;;;;;;4.03;2.78;;;18.20;98.20;;;;;;2071399;28;20098;-70
2022/05/11 04:50:19;;;;;;;4.30;2.00;;;18.20;98.10;;;;;;2071315;28;20624;-70
2022/05/11 04:51:20;;;;;;;3.00;2.08;;;18.20;98.10;;;;;;2071231;28;20034;-70
2022/05/11 04:52:21;;;;;;;3.08;2.38;;;18.20;97.90;;;;;;2069594;28;20026;-70
2022/05/11 04:53:22;;;;;;;4.72;2.55;;;18.20;97.90;;;;;;2069033;28;20036;-70
2022/05/11 04:54:22;;;;;;;2.85;2.55;;;18.20;97.50;;;;;;2069681;28;20037;-70
2022/05/11 04:55:23;;;;;;;4.28;2.15;;;18.20;97.50;;;;;;2071827;28;20049;-70
2022/05/11 04:56:23;;;;;;;4.80;2.28;;;18.20;97.90;;;;;;2073671;28;20021;-70
2022/05/11 04:57:24;;;;;;;5.72;2.50;;;18.20;96.50;;;;;;2070659;28;20498;-70
2022/05/11 04:58:24;;;;;;;2.88;2.30;;;18.20;96.80;;;;;;2069043;28;20030;-70
2022/05/11 04:59:25;;;;;;;4.57;2.40;;;18.30;97.50;;;;;;2069496;28;20030;-70
2022/05/11 05:00:25;;;;;;;4.20;2.50;;;18.30;97.40;;;;;;2068119;28;20140;-70
2022/05/11 05:01:26;;;;;;;3.72;2.08;;;18.30;98.00;;;;;;2070721;28;20257;-70
2022/05/11 05:02:30;;;;;;;5.47;2.78;;;18.30;96.80;;;;;;2069703;28;20042;-70
2022/05/11 05:03:30;;;;;;;6.05;2.70;;;18.30;96.60;;;;;;2072699;28;20021;-70
2022/05/11 05:04:32;;;;;;;4.00;2.42;;;18.30;96.50;;;;;;2068810;28;20054;-70
2022/05/11 05:05:32;;;;;;;4.28;2.45;;;18.30;96.50;;;;;;2067789;28;20036;-70
2022/05/11 05:06:33;;;;;;;3.65;2.40;;;18.30;96.60;;;;;;2067303;28;20026;-70
2022/05/11 05:07:34;;;;;;;2.75;2.55;;;18.30;96.50;;;;;;2073898;28;20105;-70
2022/05/11 05:08:35;;;;;;;4.50;2.67;;;18.30;96.80;;;;;;2069586;28;20026;-70
2022/05/11 05:09:35;;;;;;;3.95;2.33;;;18.30;96.40;;;;;;2070024;28;20538;-70
2022/05/11 05:10:36;;;;;;;4.35;2.50;;;18.30;96.70;;;;;;2071817;28;20401;-70
2022/05/11 05:11:37;;;;;;;5.03;2.50;;;18.30;96.90;;;;;;2069943;28;20017;-70
2022/05/11 05:12:38;;;;;;;6.65;3.05;;;18.30;96.40;;;;;;2071308;28;20608;-70
2022/05/11 05:13:39;;;;;;;6.78;2.38;;;18.40;96.70;;;;;;2069668;28;20053;-70
2022/05/11 05:14:42;;;;;;;4.15;2.28;;;18.40;95.50;;;;;;2068085;28;20030;-70
2022/05/11 05:15:42;;;;;;;6.13;2.33;;;18.40;94.90;;;;;;2070589;28;20026;-70
2022/05/11 05:16:43;;;;;;;3.28;2.30;;;18.40;95.20;;;;;;2067907;28;20104;-70
2022/05/11 05:17:44;;;;;;;5.45;2.35;;;18.40;95.10;;;;;;2067488;28;20034;-70
2022/05/11 05:18:44;;;;;;;5.57;2.30;;;18.40;95.10;;;;;;2071544;28;20635;-70
2022/05/11 05:19:46;;;;;;;4.05;2.70;;;18.50;95.30;;;;;;2068937;28;20023;-70
2022/05/11 05:20:46;;;;;;;4.82;3.00;;;18.50;95.20;;;;;;2067908;28;20303;-70
2022/05/11 05:21:48;;;;;;;4.72;2.28;;;18.50;95.70;;;;;;2069112;28;20121;-70
2022/05/11 05:22:48;;;;;;;3.42;2.40;;;18.50;96.20;;;;;;2070512;28;20033;-70
2022/05/11 05:23:49;;;;;;;5.05;2.80;;;18.50;96.40;;;;;;2070213;28;20025;-70
2022/05/11 05:24:50;;;;;;;5.47;2.47;;;18.60;96.20;;;;;;2068709;28;20053;-70
2022/05/11 05:25:50;;;;;;;4.38;2.75;;;18.50;94.70;;;;;;2070891;28;20021;-70
2022/05/11 05:26:51;;;;;;;4.70;2.97;;;18.60;95.00;;;;;;2067425;28;20065;-70
2022/05/11 05:27:53;;;;;;;5.38;2.42;;;18.60;94.50;;;;;;2068838;28;20025;-70
2022/05/11 05:31:32;;;;;;;5.15;2.53;;;18.70;95.70;;;;;;2067638;28;20037;-70
2022/05/11 05:32:38;;;;;;;4.18;2.80;;;18.70;95.90;;;;;;2069808;28;20025;-70
2022/05/11 05:33:39;;;;;;;3.65;2.70;;;18.80;96.10;;;;;;2069621;28;20060;-70
2022/05/11 05:34:40;;;;;;;5.90;2.80;;;18.80;95.90;;;;;;2068787;28;20033;-70